Aberdeen, Wielka Brytania

02:59 BST dnia 15-wrzesień-2014 (GMT +0100)
Brigde of Don | Change Station
CLOSE
Current Station
Stacja PWS
Location: Aberdeen, SCOTLAND
n.p.m.: 233 ft
Najbliższa stacja pogodowa

Wysokość 233 ft 57.20 °N, 2.13 °W | Updated 8 seconds ago

Mostly Cloudy
przewaga chmur
53.8 ° F
Odczuwalna 53.8 ° F
Płn.
0.0
Wiatr zmienny Wiatr od wschodni
Gusts 1.0 mph

Dziś
Wysoka -- | Niska -- ° F
--% Prawdop. opadów
Wczoraj
Wysoka -- | Niska -- ° F
Precip. -- cali
6:39 AM 7:27 PM
Zmniejszający się Księżyc, 60% visible
Ciśnienie 30.33 cali
Widzialność 3.7 mil
chmury przewaga chmur 1300 ft
Punkt rosy 52 ° F
Wilgotność 95%
Opady deszczu 0.00 cali
grubość pokrywy śnieżnej Niedostępne.
UV 0 z 12
Pyłki Niedostępne.
Jakość powietrza Niedostępne.
Flu Activity Niedostępne.
METAR EGPD 150150Z 06004KT 6000 BKN013 13/12 Q1027

More Conditions Fewer Conditions

Ciśnienie 30.33 cali
Widzialność 3.7 mil
chmury przewaga chmur 1300 ft
Punkt rosy 52 ° F
Wilgotność 95%
Opady deszczu 0.00 cali
grubość pokrywy śnieżnej Niedostępne.
UV 0 z 12
Pyłki Niedostępne.
Jakość powietrza Niedostępne.
Flu Activity Niedostępne.
METAR EGPD 150150Z 06004KT 6000 BKN013 13/12 Q1027

More Conditions Fewer Conditions

10-Day Weather Forecast

Almanac

Astronomia

Sep. 15, 2014 Wschód Zachów
Aktualny czas 06:39 BST 19:27 BST
Zmierzch cywilny 06:00 BST 20:06 BST
Zmierzch żeglarski 05:12 BST 20:53 BST
świt/zmierzch astronomiczny 04:20 BST 21:45 BST
Księżyc 22:46 BST 14:38 BST
całkowite oświetlenie 14h 06m
Długość dnia
12h 48m
Tomorrow will be 4m 49s shorter.
Zmniejszający się Księżyc, 60% of the Moon is Illuminated
Wrzesień 14
Zmniejszający się Księżyc
Wrzesień 15
Ostatnia kwadra
Wrzesień 24
Nowy
Październik 1
Pierwsza kwadra
Październik 8
Pełnia Księżyca

Wczorajsze ekstrema

Country Highs Country Lows

Community

WunderPhotos

Upload Photos

1,753,364 zdjęcia zostały przesłane!

Nearby

Jakość powietrza

Not available.

Głębokość pokrywy śnieżnej

Not available.

Aktywność sejsmiczna

Miejscowość Distance Mag. Time & Date
No recent earthquake activity has been reported nearby.
Minimum magnitude displayed is 2.5.

Temperatury wody na wybrzeżu

Miejsce Temperatura
Nie znaleziono stacji

Najbliższa stacja pogodowa